createdAt,value
2019-05-19T00:01:58.272Z,10.98
2019-05-19T00:04:30.266Z,10.94
2019-05-19T00:07:03.369Z,10.90
2019-05-19T00:09:39.583Z,10.93
2019-05-19T00:12:11.925Z,10.91
2019-05-19T00:14:43.881Z,10.85
2019-05-19T00:17:15.970Z,10.80
2019-05-19T00:19:47.923Z,10.79
2019-05-19T00:22:20.118Z,10.77
2019-05-19T00:24:55.085Z,10.71
2019-05-19T00:27:29.345Z,10.68
2019-05-19T00:30:01.433Z,10.64
2019-05-19T00:32:34.892Z,10.61
2019-05-19T00:35:07.125Z,10.54
2019-05-19T00:37:39.146Z,10.56
2019-05-19T00:40:11.535Z,10.49
2019-05-19T00:42:43.938Z,10.52
2019-05-19T00:45:18.284Z,10.50
2019-05-19T00:47:50.386Z,10.50
2019-05-19T00:50:22.613Z,10.43
2019-05-19T00:52:55.138Z,10.26
2019-05-19T00:55:27.388Z,10.29
2019-05-19T00:57:59.950Z,10.18
2019-05-19T01:00:33.809Z,10.22
2019-05-19T01:03:05.845Z,10.25
2019-05-19T01:05:37.806Z,10.14
2019-05-19T01:08:09.802Z,10.22
2019-05-19T01:10:41.976Z,10.12
2019-05-19T01:13:13.966Z,10.00
2019-05-19T01:15:45.935Z,9.95
2019-05-19T01:18:17.917Z,9.91
2019-05-19T01:20:50.047Z,9.87
2019-05-19T01:23:22.054Z,9.90
2019-05-19T01:25:54.080Z,9.73
2019-05-19T01:28:26.676Z,9.76
2019-05-19T01:30:58.840Z,9.68
2019-05-19T01:33:32.537Z,9.68
2019-05-19T01:36:05.780Z,9.68
2019-05-19T01:38:37.759Z,9.72
2019-05-19T01:41:11.584Z,9.65
2019-05-19T01:43:43.644Z,9.57
2019-05-19T01:46:18.471Z,9.50
2019-05-19T01:48:50.549Z,9.51
2019-05-19T01:51:22.611Z,9.51
2019-05-19T01:53:54.600Z,9.43
2019-05-19T01:56:26.614Z,9.40
2019-05-19T01:58:58.667Z,9.36
2019-05-19T02:01:30.658Z,9.23
2019-05-19T02:04:03.923Z,9.16
2019-05-19T02:06:35.922Z,9.20
2019-05-19T02:09:08.770Z,9.13
2019-05-19T02:11:40.862Z,9.10
2019-05-19T02:14:12.985Z,9.05
2019-05-19T02:16:44.962Z,8.99
2019-05-19T02:19:16.966Z,9.03
2019-05-19T02:21:48.986Z,9.06
2019-05-19T02:24:21.039Z,9.04
2019-05-19T02:26:53.984Z,9.06
2019-05-19T02:29:25.928Z,9.01
2019-05-19T02:31:57.983Z,8.98
2019-05-19T02:34:31.878Z,8.90
2019-05-19T02:37:04.417Z,8.87
2019-05-19T02:39:37.387Z,8.84
2019-05-19T02:42:14.726Z,8.69
2019-05-19T02:44:48.836Z,8.63
2019-05-19T02:47:21.572Z,8.66
2019-05-19T02:49:57.585Z,8.61
2019-05-19T02:52:33.115Z,8.58
2019-05-19T02:55:06.244Z,8.56
2019-05-19T02:57:39.125Z,8.61
2019-05-19T03:00:13.369Z,8.60
2019-05-19T03:02:45.476Z,8.58
2019-05-19T03:05:17.608Z,8.56
2019-05-19T03:07:49.673Z,8.52
2019-05-19T03:10:21.679Z,8.50
2019-05-19T03:12:55.643Z,8.44
2019-05-19T03:15:27.647Z,8.21
2019-05-19T03:17:59.699Z,8.16
2019-05-19T03:20:31.680Z,8.16
2019-05-19T03:23:05.530Z,8.18
2019-05-19T03:25:43.859Z,8.11
2019-05-19T03:28:14.233Z,8.06
2019-05-19T03:31:13.946Z,7.99
2019-05-19T03:33:48.626Z,7.96
2019-05-19T03:36:20.835Z,7.86
2019-05-19T03:38:52.894Z,7.84
2019-05-19T03:41:26.580Z,7.95
2019-05-19T03:43:58.943Z,8.00
2019-05-19T03:46:30.980Z,7.96
2019-05-19T03:49:03.203Z,7.97
2019-05-19T03:51:35.253Z,7.93
2019-05-19T03:54:07.290Z,7.85
2019-05-19T03:56:39.431Z,7.91
2019-05-19T03:59:13.040Z,7.85
2019-05-19T04:01:45.050Z,7.87
2019-05-19T04:04:16.995Z,7.87
2019-05-19T04:06:49.106Z,7.78
2019-05-19T04:09:21.389Z,7.76
2019-05-19T04:11:53.450Z,7.74
2019-05-19T04:14:25.854Z,7.75
2019-05-19T04:16:59.702Z,7.75
2019-05-19T04:19:34.775Z,7.70
2019-05-19T04:22:06.768Z,7.66
2019-05-19T04:24:41.754Z,7.64
2019-05-19T04:27:13.789Z,7.58
2019-05-19T04:29:45.813Z,7.48
2019-05-19T04:32:17.767Z,7.37
2019-05-19T04:34:51.710Z,7.36
2019-05-19T04:37:23.699Z,7.40
2019-05-19T04:39:57.339Z,7.40
2019-05-19T04:42:29.325Z,7.28
2019-05-19T04:45:02.126Z,7.29
2019-05-19T04:47:34.286Z,7.28
2019-05-19T04:50:08.236Z,7.20
2019-05-19T04:52:41.691Z,7.32
2019-05-19T04:55:13.749Z,7.34
2019-05-19T04:57:47.823Z,7.30
2019-05-19T05:00:20.115Z,7.22
2019-05-19T05:02:53.922Z,7.23
2019-05-19T05:05:25.961Z,7.31
2019-05-19T05:07:57.950Z,7.38
2019-05-19T05:10:29.965Z,7.40
2019-05-19T05:13:01.927Z,7.45
2019-05-19T05:15:34.360Z,7.48
2019-05-19T05:18:06.335Z,7.52
2019-05-19T05:20:38.511Z,7.43
2019-05-19T05:23:10.443Z,7.44
2019-05-19T05:25:42.966Z,7.44
2019-05-19T05:28:15.169Z,7.45
2019-05-19T05:30:47.155Z,7.39
2019-05-19T05:33:19.141Z,7.38
2019-05-19T05:35:51.082Z,7.42
2019-05-19T05:38:23.094Z,7.42
2019-05-19T05:40:55.073Z,7.51
2019-05-19T05:43:27.185Z,7.53
2019-05-19T05:45:59.567Z,7.55
2019-05-19T05:48:31.538Z,7.72
2019-05-19T05:51:03.531Z,7.81
2019-05-19T05:53:35.510Z,8.04
2019-05-19T05:56:07.579Z,8.31
2019-05-19T05:58:41.396Z,9.16
2019-05-19T06:01:13.366Z,10.32
2019-05-19T06:03:46.488Z,11.85
2019-05-19T06:06:18.646Z,12.48
2019-05-19T06:08:50.653Z,13.79
2019-05-19T06:11:23.180Z,14.68
2019-05-19T06:13:55.186Z,15.79
2019-05-19T06:16:27.212Z,15.76
2019-05-19T06:18:59.160Z,17.01
2019-05-19T06:21:32.680Z,17.93
2019-05-19T06:24:04.786Z,19.29
2019-05-19T06:26:37.928Z,19.87
2019-05-19T06:29:10.068Z,20.58
2019-05-19T06:31:42.114Z,21.05
2019-05-19T06:34:14.238Z,21.18
2019-05-19T06:36:46.991Z,22.25
2019-05-19T06:39:19.381Z,22.64
2019-05-19T06:41:51.370Z,23.09
2019-05-19T06:44:24.536Z,23.89
2019-05-19T06:46:56.531Z,24.04
2019-05-19T06:49:28.527Z,23.93
2019-05-19T06:52:00.554Z,24.52
2019-05-19T06:54:33.981Z,25.31
2019-05-19T06:57:05.969Z,25.50
2019-05-19T06:59:38.048Z,25.43
2019-05-19T07:02:10.052Z,26.34
2019-05-19T07:04:42.068Z,26.88
2019-05-19T07:07:14.305Z,27.83
2019-05-19T07:09:57.824Z,28.01
2019-05-19T07:12:21.893Z,28.73
2019-05-19T07:14:53.923Z,29.21
2019-05-19T07:17:26.018Z,28.91
2019-05-19T07:20:06.444Z,29.46
2019-05-19T07:22:38.465Z,28.61
2019-05-19T07:25:10.677Z,28.89
2019-05-19T07:27:42.673Z,29.87
2019-05-19T07:30:15.575Z,30.92
2019-05-19T07:32:47.653Z,32.05
2019-05-19T07:35:19.630Z,32.17
2019-05-19T07:37:51.735Z,31.94
2019-05-19T07:40:25.409Z,32.93
2019-05-19T07:42:57.427Z,33.36
2019-05-19T07:45:29.543Z,32.94
2019-05-19T07:48:02.903Z,33.45
2019-05-19T07:50:38.004Z,33.78
2019-05-19T07:53:09.674Z,33.06
2019-05-19T07:55:44.108Z,33.04
2019-05-19T07:58:19.122Z,33.38
2019-05-19T08:00:51.253Z,34.66
2019-05-19T08:03:26.060Z,33.51
2019-05-19T08:05:58.501Z,33.74
2019-05-19T08:08:30.623Z,35.41
2019-05-19T08:11:04.158Z,36.31
2019-05-19T08:13:36.231Z,36.87
2019-05-19T08:16:10.256Z,37.01
2019-05-19T08:18:43.818Z,35.88
2019-05-19T08:21:15.972Z,37.34
2019-05-19T08:23:59.827Z,38.15
2019-05-19T08:26:21.935Z,37.40
2019-05-19T08:28:56.262Z,37.37
2019-05-19T08:31:29.265Z,37.95
2019-05-19T08:34:03.272Z,38.42
2019-05-19T08:36:35.554Z,39.40
2019-05-19T08:39:08.199Z,38.78
2019-05-19T08:41:40.710Z,39.21
2019-05-19T08:44:12.862Z,39.40
2019-05-19T08:46:44.890Z,38.34
2019-05-19T08:49:17.416Z,36.67
2019-05-19T08:51:49.577Z,38.17
2019-05-19T08:54:21.637Z,39.11
2019-05-19T08:56:54.910Z,38.94
2019-05-19T08:59:27.179Z,39.71
2019-05-19T09:02:00.194Z,37.03
2019-05-19T09:04:32.797Z,36.77
2019-05-19T09:07:04.974Z,34.07
2019-05-19T09:09:38.769Z,32.83
2019-05-19T09:12:11.275Z,32.96
2019-05-19T09:14:45.078Z,34.31
2019-05-19T09:17:18.840Z,34.91
2019-05-19T09:19:50.982Z,35.51
2019-05-19T09:22:23.036Z,36.92
2019-05-19T09:24:55.040Z,38.24
2019-05-19T09:27:27.050Z,38.56
2019-05-19T09:29:59.538Z,37.18
2019-05-19T09:32:31.525Z,36.44
2019-05-19T09:35:04.452Z,37.30
2019-05-19T09:37:36.465Z,37.12
2019-05-19T09:40:09.850Z,37.47
2019-05-19T09:54:08.636Z,35.91
2019-05-19T09:56:40.679Z,34.36
2019-05-19T09:59:12.659Z,34.24
2019-05-19T10:01:44.687Z,34.91
2019-05-19T10:04:16.727Z,33.40
2019-05-19T10:06:48.971Z,31.22
2019-05-19T10:09:46.962Z,32.01
2019-05-19T10:12:18.884Z,30.88
2019-05-19T10:14:51.042Z,31.22
2019-05-19T10:17:25.469Z,31.07
2019-05-19T10:19:57.783Z,31.55
2019-05-19T10:22:30.327Z,29.03
2019-05-19T10:25:21.110Z,28.25
2019-05-19T10:27:38.999Z,30.10
2019-05-19T10:30:12.993Z,30.10
2019-05-19T10:32:45.474Z,32.66
2019-05-19T10:35:20.686Z,32.24
2019-05-19T10:37:52.641Z,34.06
2019-05-19T10:40:28.994Z,34.37
2019-05-19T10:43:07.830Z,31.32
2019-05-19T10:45:48.238Z,32.49
2019-05-19T10:48:19.638Z,32.98
2019-05-19T10:50:51.100Z,34.78
2019-05-19T10:53:36.131Z,36.55
2019-05-19T10:56:08.253Z,36.04
2019-05-19T10:58:40.226Z,38.31
2019-05-19T11:01:12.358Z,38.02
2019-05-19T11:03:44.346Z,37.32
2019-05-19T11:06:17.980Z,34.83
2019-05-19T11:08:50.432Z,34.66
2019-05-19T11:11:22.424Z,33.82
2019-05-19T11:13:54.407Z,32.47
2019-05-19T11:16:26.389Z,31.47
2019-05-19T11:18:58.354Z,32.39
2019-05-19T11:21:30.372Z,34.21
2019-05-19T11:24:04.460Z,35.06
2019-05-19T11:26:36.443Z,34.06
2019-05-19T11:29:10.130Z,32.37
2019-05-19T11:31:42.115Z,31.81
2019-05-19T11:34:15.416Z,30.96
2019-05-19T11:36:47.380Z,32.19
2019-05-19T11:39:19.382Z,32.51
2019-05-19T11:41:51.377Z,30.01
2019-05-19T11:44:23.972Z,27.27
2019-05-19T11:46:56.039Z,27.27
2019-05-19T11:49:28.485Z,26.48
2019-05-19T11:52:00.586Z,25.48
2019-05-19T11:54:34.645Z,24.98
2019-05-19T11:57:06.646Z,24.56
2019-05-19T11:59:39.052Z,24.46
2019-05-19T12:02:13.770Z,23.34
2019-05-19T12:04:47.166Z,23.72
2019-05-19T12:07:19.439Z,23.58
2019-05-19T12:09:51.347Z,24.19
2019-05-19T12:12:23.320Z,24.51
2019-05-19T12:14:55.337Z,23.89
2019-05-19T12:17:28.889Z,23.71
2019-05-19T12:20:03.982Z,24.25
2019-05-19T12:22:36.055Z,24.53
2019-05-19T12:25:08.754Z,24.64
2019-05-19T12:27:40.769Z,24.58
2019-05-19T12:30:19.053Z,24.74
2019-05-19T12:32:51.123Z,24.85
2019-05-19T12:35:23.955Z,24.65
2019-05-19T12:37:58.615Z,24.80
2019-05-19T12:40:31.725Z,24.60
2019-05-19T12:43:04.070Z,24.45
2019-05-19T12:45:36.575Z,24.58
2019-05-19T12:48:10.456Z,24.39
2019-05-19T12:50:42.599Z,24.14
2019-05-19T12:53:14.838Z,23.92
2019-05-19T12:55:46.983Z,24.06
2019-05-19T12:58:21.229Z,24.59
2019-05-19T13:00:53.167Z,24.72
2019-05-19T13:03:25.201Z,25.12
2019-05-19T13:05:57.304Z,25.30
2019-05-19T13:08:29.876Z,24.67
2019-05-19T13:11:01.793Z,24.70
2019-05-19T13:13:34.573Z,23.99
2019-05-19T13:16:06.888Z,24.15
2019-05-19T13:18:38.816Z,23.95
2019-05-19T13:21:11.066Z,23.19
2019-05-19T13:23:43.068Z,23.44
2019-05-19T13:26:15.020Z,23.57
2019-05-19T13:28:46.942Z,23.52
2019-05-19T13:31:19.531Z,23.12
2019-05-19T13:33:51.832Z,22.60
2019-05-19T13:36:23.770Z,23.05
2019-05-19T13:38:57.337Z,23.03
2019-05-19T13:41:32.396Z,23.17
2019-05-19T13:44:06.337Z,22.93
2019-05-19T13:46:38.274Z,23.44
2019-05-19T13:49:11.821Z,22.96
2019-05-19T13:51:43.766Z,22.97
2019-05-19T13:54:15.955Z,22.53
2019-05-19T13:56:49.632Z,22.73
2019-05-19T13:59:22.130Z,22.84
2019-05-19T14:01:54.180Z,22.97
2019-05-19T14:04:26.284Z,23.11
2019-05-19T14:06:58.292Z,23.03
2019-05-19T14:09:30.513Z,23.25
2019-05-19T14:12:03.355Z,23.27
2019-05-19T14:14:35.352Z,23.09
2019-05-19T14:17:07.530Z,22.99
2019-05-19T14:19:39.876Z,23.00
2019-05-19T14:22:13.475Z,22.74
2019-05-19T14:24:45.605Z,22.41
2019-05-19T14:27:29.475Z,22.09
2019-05-19T14:43:50.509Z,23.07
2019-05-19T14:46:22.430Z,22.78
2019-05-19T14:48:54.381Z,22.91
2019-05-19T14:51:26.429Z,22.62
2019-05-19T14:53:58.519Z,22.55
2019-05-19T14:56:33.786Z,22.47
2019-05-19T14:59:09.166Z,22.41
2019-05-19T15:01:41.530Z,22.62
2019-05-19T15:04:13.818Z,22.31
2019-05-19T15:06:45.844Z,22.29
2019-05-19T15:09:17.828Z,22.11
2019-05-19T15:11:49.971Z,22.22
2019-05-19T15:14:21.879Z,22.62
2019-05-19T15:16:54.225Z,22.40
2019-05-19T15:19:27.059Z,22.34
2019-05-19T15:22:03.454Z,22.41
2019-05-19T15:24:35.410Z,22.04
2019-05-19T15:27:07.433Z,21.79
2019-05-19T15:29:39.486Z,21.64
2019-05-19T15:32:11.586Z,21.56
2019-05-19T15:34:43.988Z,21.46
2019-05-19T15:37:16.665Z,21.55
2019-05-19T15:39:48.902Z,21.87
2019-05-19T15:42:20.823Z,22.12
2019-05-19T15:44:52.884Z,22.35
2019-05-19T15:47:26.086Z,22.17
2019-05-19T15:49:58.125Z,22.52
2019-05-19T15:52:30.451Z,22.28
2019-05-19T15:55:02.859Z,22.17
2019-05-19T15:57:36.073Z,22.14
2019-05-19T16:00:08.813Z,21.94
2019-05-19T16:02:40.856Z,21.91
2019-05-19T16:05:14.314Z,22.20
2019-05-19T16:07:46.331Z,21.87
2019-05-19T16:10:21.570Z,21.85
2019-05-19T16:12:53.517Z,21.80
2019-05-19T16:15:25.561Z,21.70
2019-05-19T16:17:57.902Z,21.48
2019-05-19T16:20:29.836Z,21.41
2019-05-19T16:23:01.764Z,21.24
2019-05-19T16:25:33.846Z,21.17
2019-05-19T16:28:06.012Z,21.29
2019-05-19T16:30:37.944Z,21.32
2019-05-19T16:33:09.866Z,21.43
2019-05-19T16:35:41.799Z,21.34
2019-05-19T16:38:13.760Z,21.02
2019-05-19T16:40:46.073Z,20.80
2019-05-19T16:43:18.052Z,20.68
2019-05-19T16:45:50.085Z,20.79
2019-05-19T16:48:23.478Z,20.73
2019-05-19T16:50:56.052Z,20.99
2019-05-19T16:53:28.041Z,20.87
2019-05-19T16:56:00.062Z,20.85
2019-05-19T16:58:44.450Z,21.11
2019-05-19T17:01:07.393Z,21.22
2019-05-19T17:03:40.066Z,21.43
2019-05-19T17:06:13.300Z,21.10
2019-05-19T17:08:46.102Z,21.09
2019-05-19T17:11:19.866Z,21.08
2019-05-19T17:13:52.553Z,20.73
2019-05-19T17:16:25.719Z,21.03
2019-05-19T17:18:57.677Z,20.95
2019-05-19T17:21:32.718Z,20.57
2019-05-19T17:24:04.761Z,20.55
2019-05-19T17:26:37.023Z,20.58
2019-05-19T17:29:09.069Z,20.30
2019-05-19T17:31:41.026Z,20.72
2019-05-19T17:34:13.390Z,20.79
2019-05-19T17:36:45.670Z,20.60
2019-05-19T17:39:17.733Z,20.29
2019-05-19T17:41:49.757Z,19.78
2019-05-19T17:44:23.064Z,19.93
2019-05-19T17:46:55.469Z,20.05
2019-05-19T17:49:27.447Z,19.76
2019-05-19T17:52:00.161Z,19.44
2019-05-19T17:54:32.771Z,19.69
2019-05-19T17:57:06.717Z,19.51
2019-05-19T17:59:44.067Z,19.69
2019-05-19T18:02:16.233Z,19.51
2019-05-19T18:04:48.495Z,19.62
2019-05-19T18:07:21.145Z,19.60
2019-05-19T18:09:53.367Z,19.44
2019-05-19T18:12:25.908Z,19.45
2019-05-19T18:14:57.889Z,19.49
2019-05-19T18:17:29.964Z,19.53
2019-05-19T18:20:03.824Z,19.31
2019-05-19T18:22:36.072Z,18.72
2019-05-19T18:25:08.153Z,18.78
2019-05-19T18:27:40.125Z,18.89
2019-05-19T18:30:13.384Z,19.06
2019-05-19T18:32:46.568Z,19.12
2019-05-19T18:35:20.417Z,18.85
2019-05-19T18:37:52.859Z,18.84
2019-05-19T18:40:24.900Z,18.83
2019-05-19T18:42:59.186Z,18.96
2019-05-19T18:45:31.450Z,18.65
2019-05-19T18:48:06.840Z,18.63
2019-05-19T18:50:40.216Z,18.51
2019-05-19T18:53:12.234Z,18.41
2019-05-19T18:55:44.237Z,18.41
2019-05-19T18:58:16.226Z,18.26
2019-05-19T19:00:50.184Z,18.35
2019-05-19T19:03:29.812Z,18.15
2019-05-19T19:06:19.475Z,17.79
2019-05-19T19:08:57.653Z,17.71
2019-05-19T19:11:29.904Z,17.50
2019-05-19T19:14:10.823Z,17.38
2019-05-19T19:16:44.427Z,17.29
2019-05-19T19:19:17.491Z,17.12
2019-05-19T19:21:50.980Z,16.93
2019-05-19T19:24:23.104Z,16.87
2019-05-19T19:26:56.878Z,16.74
2019-05-19T19:29:29.048Z,16.65
2019-05-19T19:32:01.235Z,16.47
2019-05-19T19:34:34.547Z,16.33
2019-05-19T19:37:06.718Z,16.26
2019-05-19T19:39:38.812Z,16.20
2019-05-19T19:42:10.997Z,16.05
2019-05-19T19:44:46.246Z,15.95
2019-05-19T19:47:18.404Z,15.79
2019-05-19T19:49:51.419Z,15.71
2019-05-19T19:52:23.541Z,15.59
2019-05-19T19:54:55.567Z,15.49
2019-05-19T19:57:27.768Z,15.46
2019-05-19T19:59:59.927Z,15.41
2019-05-19T20:02:34.903Z,15.31
2019-05-19T20:05:07.188Z,15.23
2019-05-19T20:07:39.808Z,15.13
2019-05-19T20:10:12.143Z,14.99
2019-05-19T20:12:45.827Z,14.95
2019-05-19T20:15:18.067Z,14.89
2019-05-19T20:17:50.266Z,14.86
2019-05-19T20:20:25.499Z,14.78
2019-05-19T20:22:57.620Z,14.75
2019-05-19T20:25:29.884Z,14.67
2019-05-19T20:28:04.312Z,14.62
2019-05-19T20:30:37.053Z,14.51
2019-05-19T20:33:09.392Z,14.46
2019-05-19T20:35:41.527Z,14.43
2019-05-19T20:38:17.160Z,14.40
2019-05-19T20:40:49.474Z,14.35
2019-05-19T20:43:21.764Z,14.27
2019-05-19T20:45:53.867Z,14.20
2019-05-19T20:48:26.083Z,14.19
2019-05-19T20:50:58.275Z,14.11
2019-05-19T20:53:30.775Z,14.06
2019-05-19T20:56:06.839Z,13.99
2019-05-19T20:58:38.974Z,13.99
2019-05-19T21:01:11.080Z,13.86
2019-05-19T21:03:43.493Z,13.77
2019-05-19T21:06:15.635Z,13.66
2019-05-19T21:08:49.283Z,13.60
2019-05-19T21:11:23.607Z,13.51
2019-05-19T21:13:55.708Z,13.43
2019-05-19T21:16:27.801Z,13.38
2019-05-19T21:19:13.959Z,13.35
2019-05-19T21:21:46.171Z,13.27
2019-05-19T21:24:18.332Z,13.20
2019-05-19T21:26:50.863Z,13.14
2019-05-19T21:29:22.976Z,13.13
2019-05-19T21:31:56.497Z,13.06
2019-05-19T21:34:28.669Z,12.95
2019-05-19T21:37:05.296Z,12.89
2019-05-19T21:39:38.730Z,12.85
2019-05-19T21:42:11.574Z,12.79
2019-05-19T21:44:48.527Z,12.75
2019-05-19T21:47:20.801Z,12.69
2019-05-19T21:49:53.278Z,12.76
2019-05-19T21:52:25.636Z,12.71
2019-05-19T21:54:58.121Z,12.67
2019-05-19T21:57:34.751Z,12.62
2019-05-19T22:00:10.346Z,12.56
2019-05-19T22:02:58.027Z,12.53
2019-05-19T22:05:30.890Z,12.40
2019-05-19T22:08:14.870Z,12.36
2019-05-19T22:10:48.564Z,12.34
2019-05-19T22:13:21.483Z,12.30
2019-05-19T22:15:54.027Z,12.29
2019-05-19T22:18:28.650Z,12.22
2019-05-19T22:21:01.090Z,12.14
2019-05-19T22:23:35.339Z,12.07
2019-05-19T22:26:07.783Z,12.10
2019-05-19T22:28:40.023Z,12.04
2019-05-19T22:31:12.437Z,12.01
2019-05-19T22:33:47.801Z,11.95
2019-05-19T22:36:20.077Z,11.88
2019-05-19T22:38:52.389Z,11.83
2019-05-19T22:41:26.571Z,11.84
2019-05-19T22:43:58.682Z,11.81
2019-05-19T22:46:31.594Z,11.81
2019-05-19T22:49:09.040Z,11.79
2019-05-19T22:51:41.093Z,11.76
2019-05-19T22:54:13.360Z,11.76
2019-05-19T22:56:45.504Z,11.72
2019-05-19T22:59:20.092Z,11.65
2019-05-19T23:01:52.198Z,11.61
2019-05-19T23:04:24.642Z,11.56
2019-05-19T23:06:58.159Z,11.59
2019-05-19T23:09:30.448Z,11.54
2019-05-19T23:12:03.411Z,11.65
2019-05-19T23:14:35.471Z,11.60
2019-05-19T23:17:12.330Z,11.51
2019-05-19T23:19:50.087Z,11.48
2019-05-19T23:22:22.302Z,11.43
2019-05-19T23:24:54.461Z,10.93
2019-05-19T23:27:26.631Z,11.40
2019-05-19T23:30:00.332Z,11.30
2019-05-19T23:32:36.267Z,11.25
2019-05-19T23:35:08.504Z,11.25
2019-05-19T23:37:40.733Z,11.20
2019-05-19T23:40:14.816Z,11.21
2019-05-19T23:42:46.955Z,11.15
2019-05-19T23:45:19.058Z,11.26
2019-05-19T23:47:51.161Z,11.25
2019-05-19T23:50:23.168Z,11.04
2019-05-19T23:52:59.123Z,11.04
2019-05-19T23:55:48.165Z,10.97
2019-05-19T23:58:21.149Z,10.95
